Time;durP1;ratioP1;P1;durP2;ratioP2;P2;SDS_P1;SDS_P2;PMS_P1;PMS_P2;Temp;Humidity;BMP_temperature;BMP_pressure;BME280_temperature;BME280_humidity;BME280_pressure;Samples;Min_cycle;Max_cycle;Signal;HPM_P1;HPM_P2
2023/06/03 00:00:49;;;;;;;3.80;3.33;;;;;;;18.10;86.25;94385.56;5071168;28;20259;-46
2023/06/03 00:03:16;;;;;;;3.07;2.77;;;;;;;18.08;86.34;94382.34;5071223;28;20209;-48
2023/06/03 00:05:44;;;;;;;4.43;3.50;;;;;;;18.07;86.09;94381.53;5071529;28;20189;-45
2023/06/03 00:08:11;;;;;;;3.90;3.50;;;;;;;17.95;85.66;94358.00;5071416;28;20217;-48
2023/06/03 00:10:38;;;;;;;5.60;3.27;;;;;;;17.91;85.90;94349.00;5071205;28;20615;-47
2023/06/03 00:13:05;;;;;;;3.73;3.43;;;;;;;18.04;85.98;94368.97;5071105;28;20194;-47
2023/06/03 00:15:32;;;;;;;4.13;3.23;;;;;;;18.03;86.07;94369.97;5070977;28;20206;-47
2023/06/03 00:17:58;;;;;;;4.83;3.70;;;;;;;18.01;85.75;94359.81;5071374;28;20226;-54
2023/06/03 00:20:28;;;;;;;3.60;3.30;;;;;;;17.95;85.79;94359.78;5074911;28;20250;-47
2023/06/03 00:22:56;;;;;;;6.33;3.27;;;;;;;17.99;86.29;94361.00;5072302;28;20589;-46
2023/06/03 00:25:23;;;;;;;3.87;3.47;;;;;;;17.98;86.63;94367.16;5070926;28;20205;-47
2023/06/03 00:27:50;;;;;;;3.83;3.43;;;;;;;17.96;86.64;94351.03;5070695;28;20238;-46
2023/06/03 00:30:17;;;;;;;3.47;3.10;;;;;;;17.86;86.93;94335.06;5070537;28;20194;-47
2023/06/03 00:32:45;;;;;;;4.73;4.10;;;;;;;17.65;87.21;94318.59;5070816;28;20190;-46
2023/06/03 00:35:11;;;;;;;4.10;3.70;;;;;;;17.91;87.08;94356.78;5070573;28;20312;-45
2023/06/03 00:37:38;;;;;;;4.63;3.63;;;;;;;17.88;87.31;94357.16;5070606;28;20218;-46
2023/06/03 00:40:08;;;;;;;4.83;3.60;;;;;;;17.89;87.56;94363.94;5070645;28;20190;-43
2023/06/03 00:42:35;;;;;;;4.43;4.03;;;;;;;17.81;87.34;94353.75;5070455;28;20190;-46
2023/06/03 00:45:02;;;;;;;6.83;3.97;;;;;;;17.79;87.02;94363.50;5070517;28;20837;-45
2023/06/03 00:47:29;;;;;;;3.73;3.37;;;;;;;17.75;87.45;94365.66;5070369;28;20301;-46
2023/06/03 00:49:56;;;;;;;3.87;3.57;;;;;;;17.74;87.49;94356.28;5070245;28;20760;-47
2023/06/03 00:52:24;;;;;;;6.07;3.77;;;;;;;17.72;87.22;94357.44;5070552;28;21053;-47
2023/06/03 00:54:52;;;;;;;5.27;3.77;;;;;;;17.71;86.78;94351.47;5070136;28;20240;-46
2023/06/03 00:57:21;;;;;;;6.00;3.80;;;;;;;17.64;87.39;94357.56;5070284;28;20182;-45
2023/06/03 00:59:48;;;;;;;6.07;3.83;;;;;;;17.66;87.36;94345.25;5070181;28;20756;-46
2023/06/03 01:02:15;;;;;;;7.43;4.27;;;;;;;17.65;87.15;94352.22;5069966;28;20608;-47
2023/06/03 01:04:45;;;;;;;7.03;3.80;;;;;;;17.55;87.52;94337.03;5070121;28;20193;-46
2023/06/03 01:07:18;;;;;;;5.73;3.60;;;;;;;17.62;87.33;94344.84;5070041;28;20277;-45
2023/06/03 01:10:00;;;;;;;7.57;4.13;;;;;;;17.60;87.10;94331.28;5069912;28;20709;-45
2023/06/03 01:12:36;;;;;;;4.17;3.63;;;;;;;17.54;87.61;94325.09;5070009;28;20187;-46
2023/06/03 01:15:08;;;;;;;7.63;3.80;;;;;;;17.48;87.96;94325.03;5069767;28;20219;-47
2023/06/03 01:17:39;;;;;;;5.60;4.13;;;;;;;17.44;88.31;94311.72;5069600;28;20190;-46
2023/06/03 01:20:09;;;;;;;5.83;3.93;;;;;;;17.49;87.58;94324.88;5069850;28;20194;-46
2023/06/03 01:22:41;;;;;;;6.33;4.30;;;;;;;17.46;87.47;94324.44;5068304;28;20650;-47
2023/06/03 01:25:11;;;;;;;6.80;3.60;;;;;;;17.43;87.68;94319.66;5070337;28;20614;-46
2023/06/03 01:27:39;;;;;;;11.13;4.80;;;;;;;17.45;87.77;94320.28;5069532;28;20608;-46
2023/06/03 01:30:08;;;;;;;5.73;4.20;;;;;;;17.30;87.58;94300.47;5069606;28;20213;-46
2023/06/03 01:32:36;;;;;;;4.07;3.70;;;;;;;17.39;87.78;94329.56;5069632;28;20251;-46
2023/06/03 01:35:04;;;;;;;5.77;3.83;;;;;;;17.33;87.94;94329.53;5069470;28;20198;-46
2023/06/03 01:37:32;;;;;;;5.70;4.00;;;;;;;17.29;88.04;94332.47;5069260;28;20662;-47
2023/06/03 01:40:01;;;;;;;5.17;4.00;;;;;;;17.28;88.03;94341.22;5069662;28;20194;-45
2023/06/03 01:42:29;;;;;;;4.53;3.77;;;;;;;17.27;88.31;94331.88;5069277;28;20190;-48
2023/06/03 01:44:58;;;;;;;4.93;3.90;;;;;;;17.05;88.31;94301.88;5070540;28;20198;-47
2023/06/03 01:47:26;;;;;;;6.43;4.23;;;;;;;17.21;88.54;94329.25;5069489;28;20194;-48
2023/06/03 01:49:53;;;;;;;10.27;5.00;;;;;;;17.21;88.59;94332.63;5069507;28;20808;-47
2023/06/03 01:52:20;;;;;;;4.90;4.40;;;;;;;17.14;88.68;94331.78;5069278;28;20194;-48
2023/06/03 01:54:47;;;;;;;5.20;4.10;;;;;;;17.11;89.26;94337.31;5069733;28;20186;-47
2023/06/03 01:57:16;;;;;;;4.87;4.13;;;;;;;17.04;89.73;94328.69;5069570;28;20183;-46
2023/06/03 01:59:44;;;;;;;6.90;4.33;;;;;;;17.00;90.08;94341.19;5069341;28;20218;-45
2023/06/03 02:02:11;;;;;;;8.37;4.33;;;;;;;16.97;90.30;94349.31;5069481;28;20186;-46
2023/06/03 02:04:38;;;;;;;4.20;3.80;;;;;;;16.99;91.27;94349.13;5069144;28;20209;-45
2023/06/03 02:07:06;;;;;;;8.17;4.27;;;;;;;16.94;91.51;94347.09;5069275;28;20335;-47
2023/06/03 02:09:32;;;;;;;4.03;3.63;;;;;;;16.85;91.72;94348.22;5069691;28;20269;-46
2023/06/03 02:12:01;;;;;;;4.40;4.00;;;;;;;16.77;91.91;94349.13;5069788;28;20186;-46
2023/06/03 02:14:29;;;;;;;6.27;4.00;;;;;;;16.79;92.49;94354.09;5069355;28;20187;-48
2023/06/03 02:16:59;;;;;;;5.17;3.93;;;;;;;16.75;92.62;94350.28;5069272;28;20205;-46
2023/06/03 02:19:26;;;;;;;5.13;3.73;;;;;;;16.49;93.28;94318.06;5069160;28;20673;-47
2023/06/03 02:21:56;;;;;;;4.07;3.67;;;;;;;16.69;93.09;94351.78;5069176;28;20194;-47
2023/06/03 02:24:23;;;;;;;8.27;3.97;;;;;;;16.60;93.64;94345.16;5068872;28;20281;-47
2023/06/03 02:26:50;;;;;;;4.07;3.67;;;;;;;16.43;93.96;94320.56;5069042;28;20630;-47
2023/06/03 02:29:18;;;;;;;4.27;3.67;;;;;;;16.40;94.33;94328.66;5068904;28;20318;-47
2023/06/03 02:31:45;;;;;;;3.90;3.60;;;;;;;16.58;94.54;94352.28;5069278;28;20644;-46
2023/06/03 02:34:14;;;;;;;6.37;3.97;;;;;;;16.60;94.79;94359.84;5068648;28;20622;-48
2023/06/03 02:36:40;;;;;;;9.53;4.17;;;;;;;16.59;94.96;94355.66;5069377;28;20183;-46
2023/06/03 02:39:09;;;;;;;4.20;3.80;;;;;;;16.59;95.09;94363.41;5068736;28;20222;-47
2023/06/03 02:41:36;;;;;;;4.50;4.13;;;;;;;16.56;95.58;94364.56;5069166;28;20191;-46
2023/06/03 02:44:02;;;;;;;5.30;3.87;;;;;;;16.54;95.56;94358.81;5069051;28;20198;-46
2023/06/03 02:46:29;;;;;;;6.00;4.30;;;;;;;16.58;95.87;94366.97;5068746;28;20193;-47
2023/06/03 02:48:56;;;;;;;6.33;3.70;;;;;;;16.57;96.35;94368.75;5069043;28;20190;-46
2023/06/03 02:51:24;;;;;;;6.70;4.27;;;;;;;16.58;96.32;94375.53;5068760;28;20194;-48
2023/06/03 02:53:51;;;;;;;5.47;4.57;;;;;;;16.53;96.33;94364.94;5070946;28;20692;-46
2023/06/03 02:56:18;;;;;;;4.87;4.40;;;;;;;16.60;96.59;94375.34;5070476;28;20606;-47
2023/06/03 02:58:45;;;;;;;6.43;4.33;;;;;;;16.61;96.54;94385.47;5070089;28;20273;-48
2023/06/03 03:01:12;;;;;;;4.60;4.13;;;;;;;16.60;97.14;94391.63;5068952;28;20190;-45
2023/06/03 03:03:40;;;;;;;6.30;4.07;;;;;;;16.65;97.29;94393.66;5068798;28;20277;-46
2023/06/03 03:06:08;;;;;;;5.33;4.10;;;;;;;16.58;97.04;94380.69;5069015;28;20876;-45
2023/06/03 03:08:36;;;;;;;4.93;4.30;;;;;;;16.67;96.69;94387.34;5068832;28;20200;-47
2023/06/03 03:11:03;;;;;;;7.63;4.33;;;;;;;16.70;96.84;94401.66;5069124;28;20179;-47
2023/06/03 03:13:30;;;;;;;5.30;4.50;;;;;;;16.70;96.92;94388.75;5069075;28;20651;-47
2023/06/03 03:15:58;;;;;;;5.40;4.20;;;;;;;16.73;96.54;94391.78;5069529;28;20198;-49
2023/06/03 03:18:25;;;;;;;4.37;3.97;;;;;;;16.75;96.71;94400.19;5072957;28;20218;-48
2023/06/03 03:20:52;;;;;;;5.10;4.60;;;;;;;16.79;96.46;94401.38;5072769;28;20681;-45
2023/06/03 03:23:19;;;;;;;5.20;4.70;;;;;;;16.79;96.37;94396.22;5072332;28;20190;-47
2023/06/03 03:25:47;;;;;;;4.97;4.37;;;;;;;16.81;96.26;94393.47;5073379;28;20189;-46
2023/06/03 03:28:14;;;;;;;5.37;4.70;;;;;;;16.87;96.04;94404.84;5073148;28;20222;-47
2023/06/03 03:30:41;;;;;;;6.67;4.20;;;;;;;16.93;95.71;94406.72;5072591;28;20669;-45
2023/06/03 03:33:07;;;;;;;9.40;5.03;;;;;;;16.96;95.41;94420.03;5073552;28;20194;-47
2023/06/03 03:35:39;;;;;;;4.67;4.13;;;;;;;16.95;95.40;94422.81;5073269;28;20658;-47
2023/06/03 03:38:08;;;;;;;4.57;4.17;;;;;;;16.92;95.96;94418.81;5072193;28;20614;-47
2023/06/03 03:40:37;;;;;;;4.63;4.23;;;;;;;16.92;95.70;94413.63;5072193;28;20190;-45
2023/06/03 03:43:06;;;;;;;5.47;4.97;;;;;;;16.72;95.43;94387.63;5071668;28;20634;-46
2023/06/03 03:45:36;;;;;;;6.10;4.57;;;;;;;16.96;95.24;94424.41;5072737;28;20197;-48
2023/06/03 03:48:04;;;;;;;6.17;4.50;;;;;;;17.02;94.68;94428.84;5073054;28;20195;-46
2023/06/03 03:50:53;;;;;;;5.40;4.40;;;;;;;17.11;94.37;94430.34;5071253;28;20212;-46
2023/06/03 03:53:22;;;;;;;4.43;4.03;;;;;;;17.10;93.92;94430.50;5029314;28;20608;-48
2023/06/03 03:55:50;;;;;;;6.83;4.07;;;;;;;17.09;93.89;94424.53;5029529;28;20226;-46
2023/06/03 03:58:27;;;;;;;5.67;4.07;;;;;;;17.04;94.00;94422.50;5028803;28;20246;-46
2023/06/03 04:00:57;;;;;;;5.67;4.40;;;;;;;17.12;93.93;94431.94;5029237;28;20194;-47
2023/06/03 04:03:25;;;;;;;4.73;4.33;;;;;;;17.15;93.60;94435.94;5028944;28;20815;-46
2023/06/03 04:05:52;;;;;;;5.10;4.60;;;;;;;17.15;93.34;94431.56;5029283;28;20223;-46
2023/06/03 04:08:38;;;;;;;9.43;4.17;;;;;;;17.21;92.96;94436.00;5028940;28;20203;-47
2023/06/03 04:11:05;;;;;;;5.30;4.70;;;;;;;17.26;92.89;94440.59;5029242;28;20198;-46
2023/06/03 04:13:36;;;;;;;5.60;4.27;;;;;;;17.22;92.50;94429.81;5028778;28;20552;-47
2023/06/03 04:16:04;;;;;;;8.80;4.37;;;;;;;17.30;92.45;94436.66;5028971;28;20290;-47
2023/06/03 04:18:32;;;;;;;4.90;4.40;;;;;;;17.33;92.23;94433.72;5028663;28;20566;-47
2023/06/03 04:21:00;;;;;;;6.47;4.33;;;;;;;17.31;92.17;94427.91;5029069;28;20199;-46
2023/06/03 04:23:28;;;;;;;6.43;4.73;;;;;;;17.37;92.31;94432.38;5028678;28;20286;-46
2023/06/03 04:25:55;;;;;;;4.47;4.07;;;;;;;17.45;92.35;94434.81;5028810;28;20690;-46
2023/06/03 04:28:22;;;;;;;5.43;4.80;;;;;;;17.51;92.21;94439.25;5027557;28;20255;-48
2023/06/03 04:30:50;;;;;;;6.83;4.53;;;;;;;17.59;92.32;94440.91;5058618;28;20228;-45
2023/06/03 04:33:17;;;;;;;4.53;4.17;;;;;;;17.64;91.98;94435.16;5070532;28;20195;-47
2023/06/03 04:35:44;;;;;;;8.43;5.53;;;;;;;17.73;91.90;94442.59;5070863;28;20613;-47
2023/06/03 04:38:11;;;;;;;4.97;4.57;;;;;;;17.75;91.54;94440.66;5070277;28;20191;-47
2023/06/03 04:40:38;;;;;;;10.53;5.50;;;;;;;17.79;91.00;94441.88;5070865;28;20214;-45
2023/06/03 04:43:05;;;;;;;8.00;5.23;;;;;;;17.91;90.59;94441.34;5070203;28;20201;-46
2023/06/03 04:45:33;;;;;;;9.20;4.87;;;;;;;17.92;90.26;94432.59;5070451;28;20190;-46
2023/06/03 04:48:01;;;;;;;7.10;5.43;;;;;;;18.05;90.39;94446.44;5070338;28;20194;-45
2023/06/03 04:50:35;;;;;;;8.97;4.80;;;;;;;18.13;89.94;94442.09;5070570;28;20662;-46
2023/06/03 04:53:01;;;;;;;5.50;5.00;;;;;;;18.10;88.92;94414.81;5070326;28;20629;-45
2023/06/03 04:55:30;;;;;;;5.77;5.10;;;;;;;18.35;88.44;94450.56;5070431;28;20199;-47
2023/06/03 04:58:00;;;;;;;7.97;5.20;;;;;;;18.45;88.07;94451.03;5070169;28;20198;-47
2023/06/03 05:00:27;;;;;;;4.60;4.20;;;;;;;18.46;86.68;94427.53;5070114;28;20222;-46
2023/06/03 05:02:57;;;;;;;5.83;5.20;;;;;;;18.75;85.18;94454.19;5070204;28;20545;-47
2023/06/03 05:05:26;;;;;;;6.37;4.50;;;;;;;18.88;84.77;94453.44;5070250;28;20244;-44
2023/06/03 05:07:53;;;;;;;9.67;5.13;;;;;;;18.92;84.79;94447.66;5070481;28;20190;-48
2023/06/03 05:10:20;;;;;;;16.30;4.87;;;;;;;19.12;84.55;94458.06;5069593;28;20191;-46
2023/06/03 05:12:49;;;;;;;8.13;5.63;;;;;;;19.22;83.37;94470.69;5070441;28;20228;-46
2023/06/03 05:15:16;;;;;;;6.73;4.87;;;;;;;19.29;82.57;94463.69;5070070;28;20285;-46
2023/06/03 05:17:42;;;;;;;6.77;4.80;;;;;;;19.42;82.29;94470.69;5069909;28;20194;-48
2023/06/03 05:20:11;;;;;;;7.80;4.53;;;;;;;19.51;81.75;94472.09;5070066;28;20218;-47
2023/06/03 05:22:39;;;;;;;6.03;4.83;;;;;;;19.60;81.20;94475.31;5069710;28;20190;-47
2023/06/03 05:25:07;;;;;;;8.27;4.40;;;;;;;19.66;80.87;94462.38;5069728;28;20566;-46
2023/06/03 05:27:34;;;;;;;8.97;5.10;;;;;;;19.67;80.84;94445.81;5070370;28;20573;-46
2023/06/03 05:30:01;;;;;;;4.43;4.03;;;;;;;19.81;79.39;94456.97;5070459;28;20612;-47
2023/06/03 05:32:28;;;;;;;5.95;4.47;;;;;;;19.82;77.88;94466.38;5069863;28;20194;-48
2023/06/03 05:34:54;;;;;;;6.43;5.00;;;;;;;19.80;77.78;94469.16;5069579;28;20190;-47
2023/06/03 05:37:22;;;;;;;5.95;4.43;;;;;;;19.83;77.46;94470.56;5069459;28;20182;-45
2023/06/03 05:39:50;;;;;;;7.57;4.68;;;;;;;19.96;77.28;94472.34;5069611;28;20210;-47
2023/06/03 05:42:17;;;;;;;5.40;4.73;;;;;;;20.03;77.54;94475.72;5069405;28;20598;-48
2023/06/03 05:44:44;;;;;;;4.70;3.83;;;;;;;20.14;77.09;94461.34;5069800;28;20576;-46
2023/06/03 05:47:10;;;;;;;6.03;4.43;;;;;;;20.31;76.33;94475.50;5069570;28;20205;-46
2023/06/03 05:49:37;;;;;;;6.30;4.55;;;;;;;20.36;75.57;94470.50;5070151;28;20239;-48
2023/06/03 05:52:04;;;;;;;7.07;4.90;;;;;;;20.51;75.19;94480.69;5069840;28;20224;-45
2023/06/03 05:54:31;;;;;;;6.03;4.82;;;;;;;20.63;74.89;94471.25;5069222;28;20187;-46
2023/06/03 05:57:00;;;;;;;7.72;4.88;;;;;;;20.85;73.71;94470.97;5069257;28;20191;-48
2023/06/03 05:59:30;;;;;;;9.57;4.97;;;;;;;21.03;73.80;94464.09;5070606;28;20218;-48
2023/06/03 06:02:01;;;;;;;5.68;4.13;;;;;;;21.24;72.22;94476.00;5070184;28;20627;-48
2023/06/03 06:04:28;;;;;;;5.40;4.40;;;;;;;21.36;71.96;94473.53;5069671;28;20724;-49
2023/06/03 06:06:55;;;;;;;9.43;5.20;;;;;;;21.57;71.80;94477.59;5069340;28;20250;-47
2023/06/03 06:09:21;;;;;;;13.50;4.95;;;;;;;21.74;71.08;94472.69;5069531;28;20183;-45
2023/06/03 06:11:48;;;;;;;6.20;4.43;;;;;;;21.86;70.08;94476.19;5069029;28;20699;-46
2023/06/03 06:14:16;;;;;;;7.07;4.72;;;;;;;21.99;69.61;94476.09;5069654;28;20191;-46
2023/06/03 06:16:43;;;;;;;5.63;4.20;;;;;;;22.22;69.45;94479.94;5069080;28;20198;-46
2023/06/03 06:19:10;;;;;;;8.20;4.82;;;;;;;22.33;68.10;94478.44;5069049;28;20191;-52
2023/06/03 06:21:37;;;;;;;4.50;3.83;;;;;;;22.34;67.90;94467.00;5069425;28;20232;-46
2023/06/03 06:24:04;;;;;;;8.80;4.20;;;;;;;22.48;68.07;94477.06;5069149;28;20273;-46
2023/06/03 06:26:31;;;;;;;5.78;4.15;;;;;;;22.49;67.30;94481.25;5069683;28;20388;-46
2023/06/03 06:28:58;;;;;;;6.50;4.05;;;;;;;22.51;67.57;94473.22;5069161;28;20226;-46
2023/06/03 06:31:26;;;;;;;6.25;4.65;;;;;;;22.52;67.12;94475.59;5069400;28;20198;-45
2023/06/03 06:33:53;;;;;;;6.47;4.28;;;;;;;22.51;66.26;94473.22;5068823;28;20591;-47
2023/06/03 06:36:31;;;;;;;7.20;4.00;;;;;;;22.43;66.62;94476.91;5068958;28;20268;-45
2023/06/03 06:38:58;;;;;;;6.40;4.22;;;;;;;22.47;66.42;94472.06;5068954;28;20190;-46
2023/06/03 06:41:28;;;;;;;6.22;4.03;;;;;;;22.41;66.04;94468.53;5068796;28;20267;-47
2023/06/03 06:43:55;;;;;;;9.52;4.20;;;;;;;22.42;65.83;94475.31;5068935;28;20232;-48
2023/06/03 06:46:23;;;;;;;5.82;4.30;;;;;;;22.34;65.71;94465.19;5068823;28;20217;-46
2023/06/03 06:48:52;;;;;;;7.88;4.22;;;;;;;22.25;66.60;94477.69;5068670;28;20205;-47
2023/06/03 06:51:19;;;;;;;6.35;4.53;;;;;;;22.23;66.46;94481.50;5069285;28;20755;-46
2023/06/03 06:53:48;;;;;;;5.00;4.47;;;;;;;22.27;67.55;94480.88;5072437;28;20654;-47
2023/06/03 06:56:18;;;;;;;5.35;4.80;;;;;;;22.45;67.30;94487.94;5072816;28;20240;-47
2023/06/03 06:58:46;;;;;;;8.32;5.30;;;;;;;22.67;67.22;94485.69;5072669;28;20289;-46
2023/06/03 07:01:12;;;;;;;7.15;4.50;;;;;;;22.83;65.84;94475.69;5072470;28;20253;-47
2023/06/03 07:03:39;;;;;;;5.65;4.03;;;;;;;23.11;65.15;94486.41;5072530;28;20205;-47
2023/06/03 07:06:07;;;;;;;6.10;4.63;;;;;;;23.15;64.88;94487.56;5072934;28;20198;-47
2023/06/03 07:08:35;;;;;;;6.03;4.82;;;;;;;23.25;64.36;94477.38;5072203;28;20194;-44
2023/06/03 07:11:03;;;;;;;6.07;4.35;;;;;;;23.34;63.01;94480.47;5072524;28;20201;-48
2023/06/03 07:13:30;;;;;;;5.43;4.40;;;;;;;23.32;63.63;94492.16;5072359;28;20280;-48
2023/06/03 07:15:57;;;;;;;7.95;5.07;;;;;;;23.36;63.33;94494.13;5072188;28;20252;-47
2023/06/03 07:18:25;;;;;;;6.95;4.78;;;;;;;23.50;63.22;94487.69;5072142;28;20191;-47
2023/06/03 07:20:52;;;;;;;6.97;4.57;;;;;;;23.63;63.24;94489.31;5072401;28;20206;-48
2023/06/03 07:23:23;;;;;;;4.43;4.03;;;;;;;23.64;61.78;94493.50;5072256;28;20661;-46
2023/06/03 07:25:51;;;;;;;5.07;4.57;;;;;;;23.47;62.09;94495.94;5072154;28;20193;-47
2023/06/03 07:28:20;;;;;;;4.60;4.05;;;;;;;23.42;63.05;94503.66;5072136;28;20226;-48
2023/06/03 07:30:49;;;;;;;7.20;4.18;;;;;;;23.33;63.71;94497.16;5071695;28;20608;-47
2023/06/03 07:33:27;;;;;;;3.95;3.55;;;;;;;23.42;64.82;94497.63;5071760;28;20709;-48
2023/06/03 07:35:55;;;;;;;6.40;4.13;;;;;;;23.61;64.24;94499.16;5072098;28;20306;-46
2023/06/03 07:38:57;;;;;;;4.20;3.80;;;;;;;23.82;63.88;94507.53;5072140;28;20190;-46
2023/06/03 07:41:40;;;;;;;7.03;3.55;;;;;;;23.98;62.42;94509.50;5071715;28;20217;-47
2023/06/03 07:44:08;;;;;;;5.15;3.80;;;;;;;23.42;62.73;94438.41;5070622;28;20572;-47
2023/06/03 07:46:41;;;;;;;4.07;3.10;;;;;;;23.83;62.88;94509.13;5071881;28;20205;-48
2023/06/03 07:49:09;;;;;;;5.93;3.97;;;;;;;23.72;63.41;94518.53;5071888;28;20190;-46
2023/06/03 07:51:39;;;;;;;11.90;4.18;;;;;;;23.64;63.48;94524.84;5074453;28;20227;-46
2023/06/03 07:54:07;;;;;;;4.95;3.55;;;;;;;23.32;64.45;94490.34;5072218;28;20190;-46
2023/06/03 07:56:34;;;;;;;6.05;3.72;;;;;;;23.47;64.68;94497.75;5071728;28;20244;-48
2023/06/03 07:59:03;;;;;;;8.27;3.35;;;;;;;23.73;63.73;94523.53;5071828;28;20247;-48
2023/06/03 08:01:30;;;;;;;3.83;3.20;;;;;;;23.83;62.34;94524.78;5075738;28;20737;-49
2023/06/03 08:03:57;;;;;;;4.13;3.22;;;;;;;23.82;62.38;94521.38;5070876;28;20617;-47
2023/06/03 08:06:26;;;;;;;3.50;3.20;;;;;;;23.80;63.00;94528.66;5071424;28;20194;-48
2023/06/03 08:08:56;;;;;;;4.63;2.90;;;;;;;23.85;62.14;94526.16;5071070;28;20277;-47
2023/06/03 08:11:25;;;;;;;3.30;2.83;;;;;;;23.97;62.35;94519.16;5071548;28;20245;-44
2023/06/03 08:13:54;;;;;;;5.53;3.00;;;;;;;24.20;62.13;94521.00;5071735;28;20324;-48
2023/06/03 08:16:21;;;;;;;4.75;3.38;;;;;;;24.41;61.49;94527.50;5071801;28;20195;-46
2023/06/03 08:18:50;;;;;;;4.05;3.55;;;;;;;24.57;61.72;94527.84;5072230;28;20189;-47
2023/06/03 08:21:18;;;;;;;3.60;3.22;;;;;;;24.57;61.43;94512.16;5072119;28;20297;-47
2023/06/03 08:23:45;;;;;;;3.10;2.80;;;;;;;24.85;60.27;94532.38;5071663;28;20205;-47
2023/06/03 08:26:12;;;;;;;4.13;2.90;;;;;;;25.02;59.82;94528.00;5071516;28;20281;-46
2023/06/03 08:28:40;;;;;;;3.35;3.05;;;;;;;25.33;59.68;94526.00;5071088;28;20230;-46
2023/06/03 08:31:07;;;;;;;3.75;3.20;;;;;;;25.55;58.75;94524.31;5071398;28;20677;-46
2023/06/03 08:33:34;;;;;;;3.33;2.90;;;;;;;25.67;58.49;94524.28;5071889;28;20251;-48
2023/06/03 08:36:02;;;;;;;3.50;3.15;;;;;;;25.87;57.74;94524.66;5073182;28;20653;-48
2023/06/03 08:38:29;;;;;;;4.90;2.90;;;;;;;26.00;56.83;94524.34;5074090;28;20283;-48
2023/06/03 08:40:56;;;;;;;3.25;2.95;;;;;;;25.97;57.00;94526.66;5071416;28;20206;-48
2023/06/03 08:43:26;;;;;;;2.88;2.63;;;;;;;26.07;55.48;94533.88;5071168;28;20183;-47
2023/06/03 08:46:05;;;;;;;2.00;1.90;;;;;;;26.16;55.99;94530.63;5070574;28;20206;-48
2023/06/03 08:48:38;;;;;;;7.45;2.95;;;;;;;26.29;54.86;94526.88;5070570;28;20183;-47
2023/06/03 08:51:06;;;;;;;2.80;2.58;;;;;;;26.40;54.89;94530.47;5070265;28;20194;-46
2023/06/03 08:53:41;;;;;;;2.80;2.60;;;;;;;26.52;53.29;94529.38;5070459;28;20684;-48
2023/06/03 08:56:11;;;;;;;3.97;2.60;;;;;;;26.44;53.45;94531.59;5070357;28;20190;-46
2023/06/03 08:58:45;;;;;;;2.55;2.35;;;;;;;26.36;53.68;94531.97;5070469;28;20186;-48
2023/06/03 09:01:16;;;;;;;3.30;2.75;;;;;;;26.40;54.91;94528.63;5069825;28;20255;-47
2023/06/03 09:03:44;;;;;;;2.72;2.40;;;;;;;26.47;54.21;94529.28;5070246;28;20190;-46
2023/06/03 09:06:12;;;;;;;3.90;2.80;;;;;;;26.49;53.70;94535.09;5070546;28;20235;-45
2023/06/03 09:08:41;;;;;;;2.92;2.72;;;;;;;26.07;53.25;94460.50;5070455;28;20247;-55
2023/06/03 09:11:12;;;;;;;3.38;2.40;;;;;;;26.52;52.36;94523.31;5070231;28;20186;-46
2023/06/03 09:13:40;;;;;;;2.80;2.60;;;;;;;26.51;51.37;94521.72;5070145;28;20178;-45
2023/06/03 09:16:09;;;;;;;4.18;2.17;;;;;;;26.36;51.89;94521.47;5069502;28;20277;-46
2023/06/03 09:18:37;;;;;;;3.05;2.75;;;;;;;26.40;52.32;94518.13;5070297;28;20194;-47
2023/06/03 09:21:05;;;;;;;2.80;2.35;;;;;;;26.38;52.66;94511.53;5069575;28;20688;-45
2023/06/03 09:23:33;;;;;;;2.40;2.20;;;;;;;26.43;53.06;94501.16;5069740;28;20280;-46
2023/06/03 09:26:00;;;;;;;2.75;2.55;;;;;;;26.51;52.78;94514.66;5069575;28;20186;-46
2023/06/03 09:28:27;;;;;;;2.55;2.42;;;;;;;26.51;52.00;94512.03;5069566;28;20768;-44
2023/06/03 09:30:54;;;;;;;2.85;2.65;;;;;;;26.59;52.20;94505.56;5069529;28;20190;-45
2023/06/03 09:33:21;;;;;;;3.85;2.42;;;;;;;26.68;51.47;94503.31;5069813;28;20196;-48
2023/06/03 09:36:07;;;;;;;3.03;2.83;;;;;;;26.70;50.94;94509.13;5069883;28;20187;-47
2023/06/03 09:38:54;;;;;;;2.42;2.22;;;;;;;26.80;50.56;94495.34;5069925;28;20194;-46
2023/06/03 09:41:22;;;;;;;2.90;2.70;;;;;;;27.05;50.07;94505.38;5069400;28;20214;-48
2023/06/03 09:43:56;;;;;;;2.30;2.10;;;;;;;27.11;50.46;94501.78;5069590;28;20194;-46
2023/06/03 09:46:24;;;;;;;2.75;2.55;;;;;;;27.35;48.41;94500.47;5069408;28;20574;-46
2023/06/03 09:48:51;;;;;;;3.95;2.55;;;;;;;27.34;48.58;94503.38;5069739;28;20191;-47
2023/06/03 09:51:21;;;;;;;2.28;2.10;;;;;;;27.13;48.21;94473.47;5069354;28;20647;-46
2023/06/03 09:53:47;;;;;;;2.85;2.65;;;;;;;27.13;49.71;94490.00;5075702;28;20209;-47
2023/06/03 09:56:25;;;;;;;2.90;2.70;;;;;;;26.95;51.47;94485.06;5069720;28;20756;-46
2023/06/03 09:59:12;;;;;;;6.25;2.85;;;;;;;27.05;51.11;94500.91;5069539;28;20202;-48
2023/06/03 10:01:39;;;;;;;3.17;2.85;;;;;;;26.97;50.83;94489.00;5069061;28;20221;-47
2023/06/03 10:04:05;;;;;;;6.78;2.78;;;;;;;26.81;51.23;94489.84;5070009;28;20565;-47
2023/06/03 10:06:35;;;;;;;3.15;2.47;;;;;;;26.59;50.96;94473.31;5069220;28;20182;-47
2023/06/03 10:09:18;;;;;;;6.15;3.00;;;;;;;26.69;51.96;94486.56;5069660;28;20192;-46
2023/06/03 10:11:48;;;;;;;5.10;2.88;;;;;;;26.81;50.70;94474.09;5069331;28;20190;-48
2023/06/03 10:14:16;;;;;;;5.18;2.70;;;;;;;26.95;49.29;94487.69;5069441;28;20201;-49
2023/06/03 10:17:02;;;;;;;2.78;2.58;;;;;;;26.95;49.23;94471.94;5069513;28;20198;-48
2023/06/03 10:19:29;;;;;;;3.42;2.90;;;;;;;26.94;48.33;94481.63;5068978;28;20263;-49
2023/06/03 10:21:58;;;;;;;3.05;2.85;;;;;;;26.82;49.26;94480.97;5069295;28;20261;-47
2023/06/03 10:24:27;;;;;;;3.17;2.58;;;;;;;26.69;49.60;94474.25;5069208;28;20202;-47
2023/06/03 10:26:54;;;;;;;2.35;2.15;;;;;;;26.77;49.16;94492.19;5070853;28;20562;-47
2023/06/03 10:29:22;;;;;;;4.57;2.28;;;;;;;26.86;48.57;94482.06;5073126;28;20962;-47
2023/06/03 10:31:51;;;;;;;2.90;2.22;;;;;;;26.96;47.13;94479.53;5073430;28;20190;-47
2023/06/03 10:34:18;;;;;;;4.90;3.38;;;;;;;27.14;46.68;94488.16;5075832;28;20190;-46
2023/06/03 10:36:49;;;;;;;10.82;6.40;;;;;;;27.16;47.76;94493.97;5075459;28;20190;-46
2023/06/03 10:39:18;;;;;;;5.47;3.50;;;;;;;27.15;48.07;94493.16;5073247;28;20198;-46
2023/06/03 10:41:46;;;;;;;3.50;2.92;;;;;;;27.27;47.90;94487.78;5072716;28;20206;-47
2023/06/03 10:44:13;;;;;;;5.82;2.30;;;;;;;27.34;47.70;94480.53;5072777;28;20198;-46
2023/06/03 10:46:50;;;;;;;4.00;2.83;;;;;;;27.45;47.86;94476.16;5072763;28;20194;-47
2023/06/03 10:49:20;;;;;;;2.38;2.17;;;;;;;26.78;47.52;94353.91;5073140;28;20214;-44
2023/06/03 10:51:59;;;;;;;3.08;2.50;;;;;;;27.65;47.57;94478.97;5072781;28;20323;-46
2023/06/03 10:54:37;;;;;;;3.35;3.05;;;;;;;27.74;47.53;94471.47;5072773;28;20201;-47
2023/06/03 10:57:08;;;;;;;3.08;2.50;;;;;;;27.78;47.22;94474.38;5072786;28;20198;-46
2023/06/03 10:59:43;;;;;;;3.08;2.50;;;;;;;27.80;46.74;94467.81;5072444;28;20198;-45
2023/06/03 11:02:10;;;;;;;2.88;2.67;;;;;;;27.63;46.97;94467.91;5072615;28;20759;-46
2023/06/03 11:04:38;;;;;;;2.60;2.40;;;;;;;27.61;47.24;94464.75;5072616;28;20186;-47
2023/06/03 11:07:06;;;;;;;4.60;2.80;;;;;;;27.65;47.12;94471.09;5072731;28;20560;-48
2023/06/03 11:09:36;;;;;;;2.90;2.67;;;;;;;27.60;47.11;94465.78;5072203;28;20202;-48
2023/06/03 11:12:05;;;;;;;2.70;2.50;;;;;;;27.48;47.69;94454.66;5072776;28;20240;-46
2023/06/03 11:14:52;;;;;;;4.15;2.55;;;;;;;27.42;46.87;94468.78;5072694;28;20259;-47
2023/06/03 11:17:20;;;;;;;7.72;3.40;;;;;;;27.22;47.67;94471.97;5072825;28;20739;-46
2023/06/03 11:19:50;;;;;;;8.57;3.20;;;;;;;27.22;48.44;94464.13;5072040;28;20193;-47
2023/06/03 11:22:44;;;;;;;4.28;3.28;;;;;;;27.25;48.10;94463.63;5072282;28;20214;-47
2023/06/03 11:25:29;;;;;;;7.78;2.58;;;;;;;27.21;48.26;94463.31;5029999;28;20196;-48
2023/06/03 11:28:35;;;;;;;4.65;3.17;;;;;;;27.32;47.53;94463.41;5029786;28;20548;-47
2023/06/03 11:31:06;;;;;;;3.30;2.75;;;;;;;27.40;45.66;94461.13;5029713;28;20191;-48
2023/06/03 11:33:33;;;;;;;2.50;2.30;;;;;;;27.30;46.20;94457.63;5029765;28;20729;-47
2023/06/03 11:36:38;;;;;;;5.55;3.00;;;;;;;27.25;45.93;94463.63;5029763;28;20667;-46
2023/06/03 11:39:05;;;;;;;3.40;2.50;;;;;;;27.28;46.53;94457.84;5029552;28;20194;-48
2023/06/03 11:42:02;;;;;;;7.15;3.25;;;;;;;27.28;45.85;94452.59;5029624;28;20392;-46
2023/06/03 11:44:29;;;;;;;3.50;2.88;;;;;;;27.12;46.41;94456.94;5029674;28;20278;-47